This is the latest recevied weather packets stored in our database for station/object EA5BZ. If no packets are shown the sender has not sent any weather packets the latest 10 day(s).
| Time | Temp. | Humidity | Pressure | Rain* | Wind** | Luminosity | Snow |
|---|---|---|---|---|---|---|---|
| 1777925736 | 18.33° C | 84% | 1012.4 hPa | 0 mm | - | - | - |
| 1777925116 | 18.33° C | 84% | 1012.3 hPa | 0 mm | - | - | - |
| 1777924816 | 18.33° C | 84% | 1012.2 hPa | 0 mm | - | - | - |
| 1777924216 | 18.33° C | 84% | 1012 hPa | 0 mm | - | - | - |
| 1777923016 | 18.89° C | 83% | 1011.8 hPa | 0 mm | - | - | - |
| 1777922716 | 18.89° C | 82% | 1011.7 hPa | 0 mm | - | - | - |
| 1777921816 | 19.44° C | 81% | 1011.6 hPa | 0 mm | - | - | - |
| 1777920035 | 20° C | 78% | 1011.5 hPa | 0 mm | - | - | - |
| 1777917618 | 20.56° C | 74% | 1011.1 hPa | 0.25 mm | - | - | - |
| 1777917317 | 20.56° C | 74% | 1011.1 hPa | 0.25 mm | - | - | - |
| 1777914317 | 21.67° C | 67% | 1011 hPa | 0 mm | - | - | - |
| 1777909237 | 22.22° C | 69% | 1010.9 hPa | 0 mm | - | - | - |
| 1777908917 | 22.78° C | 68% | 1011 hPa | 0 mm | - | - | - |
| 1777907737 | 21.67° C | 72% | 1011.1 hPa | 0.25 mm | - | - | - |
| 1777906217 | 21.11° C | 75% | 1011.4 hPa | 0.25 mm | - | - | - |
| 1777904717 | 22.22° C | 71% | 1011.6 hPa | 0 mm | - | - | - |
| 1777904417 | 22.22° C | 70% | 1011.7 hPa | 0 mm | - | - | - |
| 1777903817 | 22.22° C | 72% | 1011.6 hPa | 0 mm | - | - | - |
| 1777902037 | 21.67° C | 74% | 1011.8 hPa | 0 mm | - | - | - |
| 1777898117 | 21.67° C | 75% | 1012.3 hPa | 0 mm | - | - | - |
| 1777897517 | 21.67° C | 77% | 1012.4 hPa | 0 mm | - | - | - |
| 1777896917 | 21.11° C | 78% | 1012.5 hPa | 0 mm | - | - | - |
| 1777895417 | 21.11° C | 79% | 1012.9 hPa | 0 mm | - | - | - |
| 1777895117 | 21.11° C | 78% | 1013.1 hPa | 0 mm | - | - | - |
| 1777892417 | 21.11° C | 78% | 1013.6 hPa | 0 mm | - | - | - |
* Rain latest hour (hover to see other rain measurements)
** Current wind speed in m/s (hover to see current wind gust speed)